sensor_id;sensor_type;location;lat;lon;timestamp;temperature;humidity
18506;DHT22;9382;53.242;10.438;2022-09-03T00:01:39;15.30;99.90
18506;DHT22;9382;53.242;10.438;2022-09-03T00:04:11;15.30;99.90
18506;DHT22;9382;53.242;10.438;2022-09-03T00:06:44;15.20;99.90
18506;DHT22;9382;53.242;10.438;2022-09-03T00:09:16;15.20;99.90
18506;DHT22;9382;53.242;10.438;2022-09-03T00:11:49;15.10;99.90
18506;DHT22;9382;53.242;10.438;2022-09-03T00:14:19;15.00;99.90
18506;DHT22;9382;53.242;10.438;2022-09-03T00:16:52;15.00;99.90
18506;DHT22;9382;53.242;10.438;2022-09-03T00:19:22;15.00;99.90
18506;DHT22;9382;53.242;10.438;2022-09-03T00:21:53;15.00;99.90
18506;DHT22;9382;53.242;10.438;2022-09-03T00:24:23;15.00;99.90
18506;DHT22;9382;53.242;10.438;2022-09-03T00:26:59;14.90;99.90
18506;DHT22;9382;53.242;10.438;2022-09-03T00:29:32;14.80;99.90
18506;DHT22;9382;53.242;10.438;2022-09-03T00:32:08;14.90;99.90
18506;DHT22;9382;53.242;10.438;2022-09-03T00:34:39;14.90;99.90
18506;DHT22;9382;53.242;10.438;2022-09-03T00:37:10;14.90;99.90
18506;DHT22;9382;53.242;10.438;2022-09-03T00:39:37;14.90;99.90
18506;DHT22;9382;53.242;10.438;2022-09-03T00:42:17;15.00;99.90
18506;DHT22;9382;53.242;10.438;2022-09-03T00:45:10;15.00;99.90
18506;DHT22;9382;53.242;10.438;2022-09-03T00:47:52;15.00;99.90
18506;DHT22;9382;53.242;10.438;2022-09-03T00:50:30;15.00;99.90
18506;DHT22;9382;53.242;10.438;2022-09-03T00:53:08;15.00;99.90
18506;DHT22;9382;53.242;10.438;2022-09-03T00:55:43;15.00;99.90
18506;DHT22;9382;53.242;10.438;2022-09-03T00:58:26;15.00;99.90
18506;DHT22;9382;53.242;10.438;2022-09-03T01:00:59;15.10;99.90
18506;DHT22;9382;53.242;10.438;2022-09-03T01:03:34;15.10;99.90
18506;DHT22;9382;53.242;10.438;2022-09-03T01:06:15;15.10;99.90
18506;DHT22;9382;53.242;10.438;2022-09-03T01:09:01;15.00;99.90
18506;DHT22;9382;53.242;10.438;2022-09-03T01:11:35;15.00;99.90
18506;DHT22;9382;53.242;10.438;2022-09-03T01:14:11;15.00;99.90
18506;DHT22;9382;53.242;10.438;2022-09-03T01:16:43;14.90;99.90
18506;DHT22;9382;53.242;10.438;2022-09-03T01:19:33;14.90;99.90
18506;DHT22;9382;53.242;10.438;2022-09-03T01:22:18;14.90;99.90
18506;DHT22;9382;53.242;10.438;2022-09-03T01:25:08;14.80;99.90
18506;DHT22;9382;53.242;10.438;2022-09-03T01:27:45;14.80;99.90
18506;DHT22;9382;53.242;10.438;2022-09-03T01:30:18;14.80;99.90
18506;DHT22;9382;53.242;10.438;2022-09-03T01:32:53;14.70;99.90
18506;DHT22;9382;53.242;10.438;2022-09-03T01:35:27;14.70;99.90
18506;DHT22;9382;53.242;10.438;2022-09-03T01:38:05;14.60;99.90
18506;DHT22;9382;53.242;10.438;2022-09-03T01:40:38;14.60;99.90
18506;DHT22;9382;53.242;10.438;2022-09-03T01:43:22;14.50;99.90
18506;DHT22;9382;53.242;10.438;2022-09-03T01:45:56;14.40;99.90
18506;DHT22;9382;53.242;10.438;2022-09-03T01:48:43;14.40;99.90
18506;DHT22;9382;53.242;10.438;2022-09-03T01:51:17;14.40;99.90
18506;DHT22;9382;53.242;10.438;2022-09-03T01:54:00;14.30;99.90
18506;DHT22;9382;53.242;10.438;2022-09-03T01:56:37;14.20;99.90
18506;DHT22;9382;53.242;10.438;2022-09-03T01:59:12;14.20;99.90
18506;DHT22;9382;53.242;10.438;2022-09-03T02:01:49;14.20;99.90
18506;DHT22;9382;53.242;10.438;2022-09-03T02:04:21;14.10;99.90
18506;DHT22;9382;53.242;10.438;2022-09-03T02:06:50;14.00;99.90
18506;DHT22;9382;53.242;10.438;2022-09-03T02:09:17;14.00;99.90
18506;DHT22;9382;53.242;10.438;2022-09-03T02:11:48;14.00;99.90
18506;DHT22;9382;53.242;10.438;2022-09-03T02:14:16;13.90;99.90
18506;DHT22;9382;53.242;10.438;2022-09-03T02:16:43;13.90;99.90
18506;DHT22;9382;53.242;10.438;2022-09-03T02:19:13;13.90;99.90
18506;DHT22;9382;53.242;10.438;2022-09-03T02:21:47;13.90;99.90
18506;DHT22;9382;53.242;10.438;2022-09-03T02:24:15;14.20;99.90
18506;DHT22;9382;53.242;10.438;2022-09-03T02:26:43;13.80;99.90
18506;DHT22;9382;53.242;10.438;2022-09-03T02:29:10;13.80;99.90
18506;DHT22;9382;53.242;10.438;2022-09-03T02:31:38;13.80;99.90
18506;DHT22;9382;53.242;10.438;2022-09-03T02:34:04;13.80;99.90
18506;DHT22;9382;53.242;10.438;2022-09-03T02:36:35;13.80;99.90
18506;DHT22;9382;53.242;10.438;2022-09-03T02:39:03;13.70;99.90
18506;DHT22;9382;53.242;10.438;2022-09-03T02:41:31;13.70;99.90
18506;DHT22;9382;53.242;10.438;2022-09-03T02:44:02;13.70;99.90
18506;DHT22;9382;53.242;10.438;2022-09-03T02:46:34;13.70;99.90
18506;DHT22;9382;53.242;10.438;2022-09-03T02:49:01;13.70;99.90
18506;DHT22;9382;53.242;10.438;2022-09-03T02:51:34;13.70;99.90
18506;DHT22;9382;53.242;10.438;2022-09-03T02:54:01;13.70;99.90
18506;DHT22;9382;53.242;10.438;2022-09-03T02:56:28;13.70;99.90
18506;DHT22;9382;53.242;10.438;2022-09-03T02:58:55;13.70;99.90
18506;DHT22;9382;53.242;10.438;2022-09-03T03:01:22;13.70;99.90
18506;DHT22;9382;53.242;10.438;2022-09-03T03:03:50;13.70;99.90
18506;DHT22;9382;53.242;10.438;2022-09-03T03:06:17;13.70;99.90
18506;DHT22;9382;53.242;10.438;2022-09-03T03:08:47;13.70;99.90
18506;DHT22;9382;53.242;10.438;2022-09-03T03:11:14;13.70;99.90
18506;DHT22;9382;53.242;10.438;2022-09-03T03:13:43;13.70;99.90
18506;DHT22;9382;53.242;10.438;2022-09-03T03:16:13;13.70;99.90
18506;DHT22;9382;53.242;10.438;2022-09-03T03:18:40;13.60;99.90
18506;DHT22;9382;53.242;10.438;2022-09-03T03:21:09;13.60;99.90
18506;DHT22;9382;53.242;10.438;2022-09-03T03:23:37;13.60;99.90
18506;DHT22;9382;53.242;10.438;2022-09-03T03:26:07;13.60;99.90
18506;DHT22;9382;53.242;10.438;2022-09-03T03:28:35;13.60;99.90
18506;DHT22;9382;53.242;10.438;2022-09-03T03:31:05;13.50;99.90
18506;DHT22;9382;53.242;10.438;2022-09-03T03:33:33;13.50;99.90
18506;DHT22;9382;53.242;10.438;2022-09-03T03:36:03;13.40;99.90
18506;DHT22;9382;53.242;10.438;2022-09-03T03:38:30;13.40;99.90
18506;DHT22;9382;53.242;10.438;2022-09-03T03:40:57;13.40;99.90
18506;DHT22;9382;53.242;10.438;2022-09-03T03:43:25;13.40;99.90
18506;DHT22;9382;53.242;10.438;2022-09-03T03:45:56;13.40;99.90
18506;DHT22;9382;53.242;10.438;2022-09-03T03:48:23;13.40;99.90
18506;DHT22;9382;53.242;10.438;2022-09-03T03:50:50;13.40;99.90
18506;DHT22;9382;53.242;10.438;2022-09-03T03:53:17;13.40;99.90
18506;DHT22;9382;53.242;10.438;2022-09-03T03:55:53;13.40;99.90
18506;DHT22;9382;53.242;10.438;2022-09-03T03:58:20;13.40;99.90
18506;DHT22;9382;53.242;10.438;2022-09-03T04:00:48;13.40;99.90
18506;DHT22;9382;53.242;10.438;2022-09-03T04:03:15;13.30;99.90
18506;DHT22;9382;53.242;10.438;2022-09-03T04:05:42;13.40;99.90
18506;DHT22;9382;53.242;10.438;2022-09-03T04:08:08;13.30;99.90
18506;DHT22;9382;53.242;10.438;2022-09-03T04:10:35;13.30;99.90
18506;DHT22;9382;53.242;10.438;2022-09-03T04:13:02;13.30;99.90
18506;DHT22;9382;53.242;10.438;2022-09-03T04:15:29;13.30;99.90
18506;DHT22;9382;53.242;10.438;2022-09-03T04:17:57;13.30;99.90
18506;DHT22;9382;53.242;10.438;2022-09-03T04:20:25;13.20;99.90
18506;DHT22;9382;53.242;10.438;2022-09-03T04:22:51;13.20;99.90
18506;DHT22;9382;53.242;10.438;2022-09-03T04:25:18;13.20;99.90
18506;DHT22;9382;53.242;10.438;2022-09-03T04:27:45;13.20;99.90
18506;DHT22;9382;53.242;10.438;2022-09-03T04:30:12;13.20;99.90
18506;DHT22;9382;53.242;10.438;2022-09-03T04:32:39;13.10;99.90
18506;DHT22;9382;53.242;10.438;2022-09-03T04:35:24;13.10;99.90
18506;DHT22;9382;53.242;10.438;2022-09-03T04:37:51;13.10;99.90
18506;DHT22;9382;53.242;10.438;2022-09-03T04:40:19;13.10;99.90
18506;DHT22;9382;53.242;10.438;2022-09-03T04:42:46;13.10;99.90
18506;DHT22;9382;53.242;10.438;2022-09-03T04:45:13;13.10;99.90
18506;DHT22;9382;53.242;10.438;2022-09-03T04:47:43;13.10;99.90
18506;DHT22;9382;53.242;10.438;2022-09-03T04:50:11;13.10;99.90
18506;DHT22;9382;53.242;10.438;2022-09-03T04:52:39;13.00;99.90
18506;DHT22;9382;53.242;10.438;2022-09-03T04:55:07;13.00;99.90
18506;DHT22;9382;53.242;10.438;2022-09-03T04:57:35;13.00;99.90
18506;DHT22;9382;53.242;10.438;2022-09-03T05:00:04;13.00;99.90
18506;DHT22;9382;53.242;10.438;2022-09-03T05:02:32;13.00;99.90
18506;DHT22;9382;53.242;10.438;2022-09-03T05:04:58;13.00;99.90
18506;DHT22;9382;53.242;10.438;2022-09-03T05:07:25;13.00;99.90
18506;DHT22;9382;53.242;10.438;2022-09-03T05:09:54;13.00;99.90
18506;DHT22;9382;53.242;10.438;2022-09-03T05:12:22;13.00;99.90
18506;DHT22;9382;53.242;10.438;2022-09-03T05:14:49;13.10;99.90
18506;DHT22;9382;53.242;10.438;2022-09-03T05:17:16;13.00;99.90
18506;DHT22;9382;53.242;10.438;2022-09-03T05:19:42;13.10;99.90
18506;DHT22;9382;53.242;10.438;2022-09-03T05:22:09;13.10;99.90
18506;DHT22;9382;53.242;10.438;2022-09-03T05:24:36;13.10;99.90
18506;DHT22;9382;53.242;10.438;2022-09-03T05:27:04;13.10;99.90
18506;DHT22;9382;53.242;10.438;2022-09-03T05:29:31;13.10;99.90
18506;DHT22;9382;53.242;10.438;2022-09-03T05:31:57;13.10;99.90
18506;DHT22;9382;53.242;10.438;2022-09-03T05:34:24;13.20;99.90
18506;DHT22;9382;53.242;10.438;2022-09-03T05:36:52;13.20;99.90
18506;DHT22;9382;53.242;10.438;2022-09-03T05:39:20;13.20;99.90
18506;DHT22;9382;53.242;10.438;2022-09-03T05:41:46;13.20;99.90
18506;DHT22;9382;53.242;10.438;2022-09-03T05:44:19;13.30;99.90
18506;DHT22;9382;53.242;10.438;2022-09-03T05:46:48;13.30;99.90
18506;DHT22;9382;53.242;10.438;2022-09-03T05:49:16;13.40;99.90
18506;DHT22;9382;53.242;10.438;2022-09-03T05:51:42;13.40;99.90
18506;DHT22;9382;53.242;10.438;2022-09-03T05:54:10;13.40;99.90
18506;DHT22;9382;53.242;10.438;2022-09-03T05:56:38;13.50;99.90
18506;DHT22;9382;53.242;10.438;2022-09-03T05:59:06;13.60;99.90
18506;DHT22;9382;53.242;10.438;2022-09-03T06:01:36;13.60;99.90
18506;DHT22;9382;53.242;10.438;2022-09-03T06:04:04;13.70;99.90
18506;DHT22;9382;53.242;10.438;2022-09-03T06:06:33;13.70;99.90
18506;DHT22;9382;53.242;10.438;2022-09-03T06:09:02;13.80;99.90
18506;DHT22;9382;53.242;10.438;2022-09-03T06:11:30;13.80;99.90
18506;DHT22;9382;53.242;10.438;2022-09-03T06:13:58;13.80;99.90
18506;DHT22;9382;53.242;10.438;2022-09-03T06:16:26;13.30;99.90
18506;DHT22;9382;53.242;10.438;2022-09-03T06:18:55;14.00;99.90
18506;DHT22;9382;53.242;10.438;2022-09-03T06:21:21;14.00;99.90
18506;DHT22;9382;53.242;10.438;2022-09-03T06:23:49;14.00;99.90
18506;DHT22;9382;53.242;10.438;2022-09-03T06:26:17;14.10;99.90
18506;DHT22;9382;53.242;10.438;2022-09-03T06:28:46;14.20;99.90
18506;DHT22;9382;53.242;10.438;2022-09-03T06:31:14;14.40;99.90
18506;DHT22;9382;53.242;10.438;2022-09-03T06:33:42;14.50;99.90
18506;DHT22;9382;53.242;10.438;2022-09-03T06:36:12;14.60;99.90
18506;DHT22;9382;53.242;10.438;2022-09-03T06:38:40;14.80;99.90
18506;DHT22;9382;53.242;10.438;2022-09-03T06:41:08;14.90;99.90
18506;DHT22;9382;53.242;10.438;2022-09-03T06:43:37;15.00;99.90
18506;DHT22;9382;53.242;10.438;2022-09-03T06:46:06;15.10;99.90
18506;DHT22;9382;53.242;10.438;2022-09-03T06:48:34;15.20;99.90
18506;DHT22;9382;53.242;10.438;2022-09-03T06:51:03;15.40;99.90
18506;DHT22;9382;53.242;10.438;2022-09-03T06:53:33;15.50;99.90
18506;DHT22;9382;53.242;10.438;2022-09-03T06:56:02;15.60;99.90
18506;DHT22;9382;53.242;10.438;2022-09-03T06:58:31;15.80;99.90
18506;DHT22;9382;53.242;10.438;2022-09-03T07:01:03;15.90;99.90
18506;DHT22;9382;53.242;10.438;2022-09-03T07:03:31;16.10;99.90
18506;DHT22;9382;53.242;10.438;2022-09-03T07:06:01;16.20;99.90
18506;DHT22;9382;53.242;10.438;2022-09-03T07:08:27;16.30;99.90
18506;DHT22;9382;53.242;10.438;2022-09-03T07:10:57;16.40;99.90
18506;DHT22;9382;53.242;10.438;2022-09-03T07:13:24;16.50;99.90
18506;DHT22;9382;53.242;10.438;2022-09-03T07:15:58;16.60;99.90
18506;DHT22;9382;53.242;10.438;2022-09-03T07:18:24;16.70;99.90
18506;DHT22;9382;53.242;10.438;2022-09-03T07:20:51;16.90;99.90
18506;DHT22;9382;53.242;10.438;2022-09-03T07:23:18;17.00;99.90
18506;DHT22;9382;53.242;10.438;2022-09-03T07:25:52;17.10;99.90
18506;DHT22;9382;53.242;10.438;2022-09-03T07:28:20;17.20;99.90
18506;DHT22;9382;53.242;10.438;2022-09-03T07:30:47;17.30;99.90
18506;DHT22;9382;53.242;10.438;2022-09-03T07:33:14;17.40;99.90
18506;DHT22;9382;53.242;10.438;2022-09-03T07:35:40;17.60;99.90
18506;DHT22;9382;53.242;10.438;2022-09-03T07:38:07;17.80;99.90
18506;DHT22;9382;53.242;10.438;2022-09-03T07:40:34;18.00;99.90
18506;DHT22;9382;53.242;10.438;2022-09-03T07:43:01;18.20;99.90
18506;DHT22;9382;53.242;10.438;2022-09-03T07:45:31;18.30;99.90
18506;DHT22;9382;53.242;10.438;2022-09-03T07:47:58;18.40;99.90
18506;DHT22;9382;53.242;10.438;2022-09-03T07:50:25;18.50;99.90
18506;DHT22;9382;53.242;10.438;2022-09-03T07:52:55;18.60;99.90
18506;DHT22;9382;53.242;10.438;2022-09-03T07:55:22;18.70;99.90
18506;DHT22;9382;53.242;10.438;2022-09-03T07:57:49;18.70;99.90
18506;DHT22;9382;53.242;10.438;2022-09-03T08:00:20;18.90;99.90
18506;DHT22;9382;53.242;10.438;2022-09-03T08:02:50;19.00;99.90
18506;DHT22;9382;53.242;10.438;2022-09-03T08:05:17;19.20;99.90
18506;DHT22;9382;53.242;10.438;2022-09-03T08:07:44;19.40;99.90
18506;DHT22;9382;53.242;10.438;2022-09-03T08:10:11;19.50;99.90
18506;DHT22;9382;53.242;10.438;2022-09-03T08:12:39;19.60;99.90
18506;DHT22;9382;53.242;10.438;2022-09-03T08:15:06;19.80;99.90
18506;DHT22;9382;53.242;10.438;2022-09-03T08:17:33;20.00;99.90
18506;DHT22;9382;53.242;10.438;2022-09-03T08:20:02;20.20;99.90
18506;DHT22;9382;53.242;10.438;2022-09-03T08:22:29;20.50;99.90
18506;DHT22;9382;53.242;10.438;2022-09-03T08:24:56;20.60;99.90
18506;DHT22;9382;53.242;10.438;2022-09-03T08:27:22;20.70;99.90
18506;DHT22;9382;53.242;10.438;2022-09-03T08:29:49;20.90;99.90
18506;DHT22;9382;53.242;10.438;2022-09-03T08:32:16;20.90;99.90
18506;DHT22;9382;53.242;10.438;2022-09-03T08:34:43;21.10;99.90
18506;DHT22;9382;53.242;10.438;2022-09-03T08:37:11;21.10;99.90
18506;DHT22;9382;53.242;10.438;2022-09-03T08:39:38;21.20;99.90
18506;DHT22;9382;53.242;10.438;2022-09-03T08:45:05;21.30;99.90
18506;DHT22;9382;53.242;10.438;2022-09-03T08:47:37;21.60;99.90
18506;DHT22;9382;53.242;10.438;2022-09-03T08:50:10;21.70;99.90
18506;DHT22;9382;53.242;10.438;2022-09-03T08:52:43;21.80;99.90
18506;DHT22;9382;53.242;10.438;2022-09-03T08:55:22;22.00;99.90
18506;DHT22;9382;53.242;10.438;2022-09-03T08:57:54;22.20;99.90
18506;DHT22;9382;53.242;10.438;2022-09-03T09:00:22;22.70;99.90
18506;DHT22;9382;53.242;10.438;2022-09-03T09:03:02;22.60;99.90
18506;DHT22;9382;53.242;10.438;2022-09-03T09:05:42;22.70;99.90
18506;DHT22;9382;53.242;10.438;2022-09-03T09:08:19;22.80;99.90
18506;DHT22;9382;53.242;10.438;2022-09-03T09:10:48;22.70;99.90
18506;DHT22;9382;53.242;10.438;2022-09-03T09:13:25;22.80;99.90
18506;DHT22;9382;53.242;10.438;2022-09-03T09:16:03;22.80;99.90
18506;DHT22;9382;53.242;10.438;2022-09-03T09:18:43;22.90;99.90
18506;DHT22;9382;53.242;10.438;2022-09-03T09:21:14;23.20;99.90
18506;DHT22;9382;53.242;10.438;2022-09-03T09:23:45;23.30;99.90
18506;DHT22;9382;53.242;10.438;2022-09-03T09:26:15;23.50;99.90
18506;DHT22;9382;53.242;10.438;2022-09-03T09:28:45;23.60;99.90
18506;DHT22;9382;53.242;10.438;2022-09-03T09:31:14;23.60;99.90
18506;DHT22;9382;53.242;10.438;2022-09-03T09:33:43;23.70;99.90
18506;DHT22;9382;53.242;10.438;2022-09-03T09:36:12;23.70;99.90
18506;DHT22;9382;53.242;10.438;2022-09-03T09:38:40;23.80;99.90
18506;DHT22;9382;53.242;10.438;2022-09-03T09:41:10;23.90;99.90
18506;DHT22;9382;53.242;10.438;2022-09-03T09:43:37;24.20;99.90
18506;DHT22;9382;53.242;10.438;2022-09-03T09:46:11;24.40;99.90
18506;DHT22;9382;53.242;10.438;2022-09-03T09:48:45;24.20;99.90
18506;DHT22;9382;53.242;10.438;2022-09-03T09:51:18;24.20;99.90
18506;DHT22;9382;53.242;10.438;2022-09-03T09:53:45;24.10;99.90
18506;DHT22;9382;53.242;10.438;2022-09-03T09:56:21;24.20;99.90
18506;DHT22;9382;53.242;10.438;2022-09-03T09:58:48;24.40;99.90
18506;DHT22;9382;53.242;10.438;2022-09-03T10:01:21;24.70;99.90
18506;DHT22;9382;53.242;10.438;2022-09-03T10:03:51;24.70;99.90
18506;DHT22;9382;53.242;10.438;2022-09-03T10:06:22;24.70;99.90
18506;DHT22;9382;53.242;10.438;2022-09-03T10:09:08;25.00;99.90
18506;DHT22;9382;53.242;10.438;2022-09-03T10:11:39;25.10;99.90
18506;DHT22;9382;53.242;10.438;2022-09-03T10:14:12;25.10;99.90
18506;DHT22;9382;53.242;10.438;2022-09-03T10:16:45;25.10;99.90
18506;DHT22;9382;53.242;10.438;2022-09-03T10:19:16;25.40;99.90
18506;DHT22;9382;53.242;10.438;2022-09-03T10:21:49;25.60;99.90
18506;DHT22;9382;53.242;10.438;2022-09-03T10:24:29;25.50;99.90
18506;DHT22;9382;53.242;10.438;2022-09-03T10:26:58;25.50;99.90
18506;DHT22;9382;53.242;10.438;2022-09-03T10:29:26;25.50;99.90
18506;DHT22;9382;53.242;10.438;2022-09-03T10:32:02;25.60;99.90
18506;DHT22;9382;53.242;10.438;2022-09-03T10:34:37;25.70;99.90
18506;DHT22;9382;53.242;10.438;2022-09-03T10:37:17;25.60;99.90
18506;DHT22;9382;53.242;10.438;2022-09-03T10:39:56;25.60;99.90
18506;DHT22;9382;53.242;10.438;2022-09-03T10:42:36;25.60;99.90
18506;DHT22;9382;53.242;10.438;2022-09-03T10:45:12;25.30;99.90
18506;DHT22;9382;53.242;10.438;2022-09-03T10:48:14;25.60;99.90
18506;DHT22;9382;53.242;10.438;2022-09-03T10:50:46;25.80;98.90
18506;DHT22;9382;53.242;10.438;2022-09-03T10:53:24;25.50;98.00
18506;DHT22;9382;53.242;10.438;2022-09-03T10:55:58;25.60;98.60
18506;DHT22;9382;53.242;10.438;2022-09-03T10:58:42;25.50;99.00
18506;DHT22;9382;53.242;10.438;2022-09-03T11:01:17;25.90;98.30
18506;DHT22;9382;53.242;10.438;2022-09-03T11:03:48;26.30;96.10
18506;DHT22;9382;53.242;10.438;2022-09-03T11:06:20;26.10;92.90
18506;DHT22;9382;53.242;10.438;2022-09-03T11:08:53;25.70;93.10
18506;DHT22;9382;53.242;10.438;2022-09-03T11:11:28;25.30;93.80
18506;DHT22;9382;53.242;10.438;2022-09-03T11:14:01;25.10;92.50
18506;DHT22;9382;53.242;10.438;2022-09-03T11:16:31;24.80;93.50
18506;DHT22;9382;53.242;10.438;2022-09-03T11:19:02;25.00;94.40
18506;DHT22;9382;53.242;10.438;2022-09-03T11:21:30;25.30;93.80
18506;DHT22;9382;53.242;10.438;2022-09-03T11:24:05;25.60;93.10
18506;DHT22;9382;53.242;10.438;2022-09-03T11:26:33;26.00;93.00
18506;DHT22;9382;53.242;10.438;2022-09-03T11:29:07;26.70;92.20
18506;DHT22;9382;53.242;10.438;2022-09-03T11:31:53;27.30;91.50
18506;DHT22;9382;53.242;10.438;2022-09-03T11:34:30;27.90;90.90
18506;DHT22;9382;53.242;10.438;2022-09-03T11:37:15;28.20;85.10
18506;DHT22;9382;53.242;10.438;2022-09-03T11:39:43;28.00;85.30
18506;DHT22;9382;53.242;10.438;2022-09-03T11:42:11;28.10;88.00
18506;DHT22;9382;53.242;10.438;2022-09-03T11:44:50;28.10;86.00
18506;DHT22;9382;53.242;10.438;2022-09-03T11:47:21;27.50;84.90
18506;DHT22;9382;53.242;10.438;2022-09-03T11:49:50;27.50;86.80
18506;DHT22;9382;53.242;10.438;2022-09-03T11:52:27;28.30;84.60
18506;DHT22;9382;53.242;10.438;2022-09-03T11:54:54;29.20;80.50
18506;DHT22;9382;53.242;10.438;2022-09-03T11:57:25;28.80;81.80
18506;DHT22;9382;53.242;10.438;2022-09-03T11:59:54;28.10;82.60
18506;DHT22;9382;53.242;10.438;2022-09-03T12:02:34;27.90;83.30
18506;DHT22;9382;53.242;10.438;2022-09-03T12:05:13;27.80;83.20
18506;DHT22;9382;53.242;10.438;2022-09-03T12:10:45;27.00;80.80
18506;DHT22;9382;53.242;10.438;2022-09-03T12:13:41;26.60;82.40
18506;DHT22;9382;53.242;10.438;2022-09-03T12:16:33;26.80;83.80
18506;DHT22;9382;53.242;10.438;2022-09-03T12:19:10;28.00;85.30
18506;DHT22;9382;53.242;10.438;2022-09-03T12:21:41;29.80;82.70
18506;DHT22;9382;53.242;10.438;2022-09-03T12:24:10;31.10;78.10
18506;DHT22;9382;53.242;10.438;2022-09-03T12:26:40;31.90;77.10
18506;DHT22;9382;53.242;10.438;2022-09-03T12:29:19;32.80;71.10
18506;DHT22;9382;53.242;10.438;2022-09-03T12:31:49;33.30;68.40
18506;DHT22;9382;53.242;10.438;2022-09-03T12:34:17;33.00;67.40
18506;DHT22;9382;53.242;10.438;2022-09-03T12:36:47;33.00;68.00
18506;DHT22;9382;53.242;10.438;2022-09-03T12:39:15;33.00;69.20
18506;DHT22;9382;53.242;10.438;2022-09-03T12:41:56;33.10;68.30
18506;DHT22;9382;53.242;10.438;2022-09-03T12:44:26;33.80;69.00
18506;DHT22;9382;53.242;10.438;2022-09-03T12:47:02;34.70;65.50
18506;DHT22;9382;53.242;10.438;2022-09-03T12:49:34;34.80;61.50
18506;DHT22;9382;53.242;10.438;2022-09-03T12:52:06;34.80;63.30
18506;DHT22;9382;53.242;10.438;2022-09-03T12:54:37;35.30;61.80
18506;DHT22;9382;53.242;10.438;2022-09-03T12:57:07;35.50;59.40
18506;DHT22;9382;53.242;10.438;2022-09-03T12:59:36;35.70;60.20
18506;DHT22;9382;53.242;10.438;2022-09-03T13:02:12;35.40;58.80
18506;DHT22;9382;53.242;10.438;2022-09-03T13:04:42;35.30;58.90
18506;DHT22;9382;53.242;10.438;2022-09-03T13:07:12;35.60;59.50
18506;DHT22;9382;53.242;10.438;2022-09-03T13:09:41;36.30;59.40
18506;DHT22;9382;53.242;10.438;2022-09-03T13:12:21;36.30;56.70
18506;DHT22;9382;53.242;10.438;2022-09-03T13:14:49;36.00;57.00
18506;DHT22;9382;53.242;10.438;2022-09-03T13:17:31;35.00;56.40
18506;DHT22;9382;53.242;10.438;2022-09-03T13:20:14;33.80;58.30
18506;DHT22;9382;53.242;10.438;2022-09-03T13:23:00;33.70;58.40
18506;DHT22;9382;53.242;10.438;2022-09-03T13:25:37;32.40;59.50
18506;DHT22;9382;53.242;10.438;2022-09-03T13:28:14;32.30;61.30
18506;DHT22;9382;53.242;10.438;2022-09-03T13:30:47;33.80;58.60
18506;DHT22;9382;53.242;10.438;2022-09-03T13:33:21;35.10;56.90
18506;DHT22;9382;53.242;10.438;2022-09-03T13:35:53;36.20;56.20
18506;DHT22;9382;53.242;10.438;2022-09-03T13:38:30;36.80;55.20
18506;DHT22;9382;53.242;10.438;2022-09-03T13:41:02;37.30;53.70
18506;DHT22;9382;53.242;10.438;2022-09-03T13:43:38;37.80;53.50
18506;DHT22;9382;53.242;10.438;2022-09-03T13:46:09;38.10;52.80
18506;DHT22;9382;53.242;10.438;2022-09-03T13:48:40;37.90;52.00
18506;DHT22;9382;53.242;10.438;2022-09-03T13:51:27;37.60;53.60
18506;DHT22;9382;53.242;10.438;2022-09-03T13:54:06;37.90;51.70
18506;DHT22;9382;53.242;10.438;2022-09-03T13:56:46;37.90;52.00
18506;DHT22;9382;53.242;10.438;2022-09-03T13:59:19;38.10;51.70
18506;DHT22;9382;53.242;10.438;2022-09-03T14:02:06;37.80;52.30
18506;DHT22;9382;53.242;10.438;2022-09-03T14:04:46;35.80;52.80
18506;DHT22;9382;53.242;10.438;2022-09-03T14:07:19;33.40;54.60
18506;DHT22;9382;53.242;10.438;2022-09-03T14:09:53;32.20;55.90
18506;DHT22;9382;53.242;10.438;2022-09-03T14:12:39;33.40;55.30
18506;DHT22;9382;53.242;10.438;2022-09-03T14:15:16;35.10;54.60
18506;DHT22;9382;53.242;10.438;2022-09-03T14:17:47;36.10;54.70
18506;DHT22;9382;53.242;10.438;2022-09-03T14:20:22;36.40;53.80
18506;DHT22;9382;53.242;10.438;2022-09-03T14:22:53;37.10;53.50
18506;DHT22;9382;53.242;10.438;2022-09-03T14:25:22;36.50;53.00
18506;DHT22;9382;53.242;10.438;2022-09-03T14:27:50;35.90;54.10
18506;DHT22;9382;53.242;10.438;2022-09-03T14:30:24;36.40;53.00
18506;DHT22;9382;53.242;10.438;2022-09-03T14:33:00;37.20;53.60
18506;DHT22;9382;53.242;10.438;2022-09-03T14:35:47;38.00;53.00
18506;DHT22;9382;53.242;10.438;2022-09-03T14:38:35;38.80;52.50
18506;DHT22;9382;53.242;10.438;2022-09-03T14:41:21;39.00;51.40
18506;DHT22;9382;53.242;10.438;2022-09-03T14:44:17;39.40;51.20
18506;DHT22;9382;53.242;10.438;2022-09-03T14:46:58;39.50;50.20
18506;DHT22;9382;53.242;10.438;2022-09-03T14:49:48;39.90;50.50
18506;DHT22;9382;53.242;10.438;2022-09-03T14:52:33;40.00;50.50
18506;DHT22;9382;53.242;10.438;2022-09-03T14:55:13;40.20;49.10
18506;DHT22;9382;53.242;10.438;2022-09-03T14:57:52;40.00;50.00
18506;DHT22;9382;53.242;10.438;2022-09-03T15:00:31;38.50;50.00
18506;DHT22;9382;53.242;10.438;2022-09-03T15:06:03;35.80;52.30
18506;DHT22;9382;53.242;10.438;2022-09-03T15:08:48;36.90;51.50
18506;DHT22;9382;53.242;10.438;2022-09-03T15:11:21;37.60;51.50
18506;DHT22;9382;53.242;10.438;2022-09-03T15:13:52;38.40;49.40
18506;DHT22;9382;53.242;10.438;2022-09-03T15:16:38;38.70;50.00
18506;DHT22;9382;53.242;10.438;2022-09-03T15:19:15;38.90;49.80
18506;DHT22;9382;53.242;10.438;2022-09-03T15:22:06;39.30;49.60
18506;DHT22;9382;53.242;10.438;2022-09-03T15:24:46;39.50;48.60
18506;DHT22;9382;53.242;10.438;2022-09-03T15:27:35;39.30;49.20
18506;DHT22;9382;53.242;10.438;2022-09-03T15:30:08;39.20;50.20
18506;DHT22;9382;53.242;10.438;2022-09-03T15:32:48;39.20;49.40
18506;DHT22;9382;53.242;10.438;2022-09-03T15:35:33;39.10;48.70
18506;DHT22;9382;53.242;10.438;2022-09-03T15:38:05;38.90;48.90
18506;DHT22;9382;53.242;10.438;2022-09-03T15:40:40;38.80;49.00
18506;DHT22;9382;53.242;10.438;2022-09-03T15:43:10;38.70;47.90
18506;DHT22;9382;53.242;10.438;2022-09-03T15:45:51;38.50;48.50
18506;DHT22;9382;53.242;10.438;2022-09-03T15:48:28;38.20;48.30
18506;DHT22;9382;53.242;10.438;2022-09-03T15:51:04;38.00;48.80
18506;DHT22;9382;53.242;10.438;2022-09-03T15:53:38;37.80;52.90
18506;DHT22;9382;53.242;10.438;2022-09-03T15:56:17;37.30;50.60
18506;DHT22;9382;53.242;10.438;2022-09-03T15:58:49;37.20;50.10
18506;DHT22;9382;53.242;10.438;2022-09-03T16:01:43;37.30;50.00
18506;DHT22;9382;53.242;10.438;2022-09-03T16:04:21;37.40;52.30
18506;DHT22;9382;53.242;10.438;2022-09-03T16:06:57;37.20;50.80
18506;DHT22;9382;53.242;10.438;2022-09-03T16:09:35;36.80;51.20
18506;DHT22;9382;53.242;10.438;2022-09-03T16:12:13;36.50;51.90